sensor_id;sensor_type;location;lat;lon;timestamp;temperature;humidity
21662;DHT22;10992;48.170;8.596;2023-05-10T00:02:10;11.20;99.90
21662;DHT22;10992;48.170;8.596;2023-05-10T00:04:37;11.20;99.90
21662;DHT22;10992;48.170;8.596;2023-05-10T00:07:04;11.20;99.90
21662;DHT22;10992;48.170;8.596;2023-05-10T00:09:31;11.10;99.90
21662;DHT22;10992;48.170;8.596;2023-05-10T00:11:58;11.10;99.90
21662;DHT22;10992;48.170;8.596;2023-05-10T00:14:25;11.10;99.90
21662;DHT22;10992;48.170;8.596;2023-05-10T00:16:52;11.00;99.90
21662;DHT22;10992;48.170;8.596;2023-05-10T00:19:19;11.10;99.90
21662;DHT22;10992;48.170;8.596;2023-05-10T00:21:46;11.10;99.90
21662;DHT22;10992;48.170;8.596;2023-05-10T00:24:13;11.10;99.90
21662;DHT22;10992;48.170;8.596;2023-05-10T00:26:40;11.10;99.90
21662;DHT22;10992;48.170;8.596;2023-05-10T00:29:08;11.00;99.90
21662;DHT22;10992;48.170;8.596;2023-05-10T00:31:35;11.00;99.90
21662;DHT22;10992;48.170;8.596;2023-05-10T00:34:03;11.00;99.90
21662;DHT22;10992;48.170;8.596;2023-05-10T00:36:30;10.90;99.90
21662;DHT22;10992;48.170;8.596;2023-05-10T00:38:58;10.90;99.90
21662;DHT22;10992;48.170;8.596;2023-05-10T00:41:24;10.90;99.90
21662;DHT22;10992;48.170;8.596;2023-05-10T00:43:53;10.90;99.90
21662;DHT22;10992;48.170;8.596;2023-05-10T00:46:20;10.90;99.90
21662;DHT22;10992;48.170;8.596;2023-05-10T00:48:48;10.90;99.90
21662;DHT22;10992;48.170;8.596;2023-05-10T00:51:15;10.90;99.90
21662;DHT22;10992;48.170;8.596;2023-05-10T00:53:45;11.00;99.90
21662;DHT22;10992;48.170;8.596;2023-05-10T00:56:15;11.00;99.90
21662;DHT22;10992;48.170;8.596;2023-05-10T00:58:42;11.00;99.90
21662;DHT22;10992;48.170;8.596;2023-05-10T01:01:09;11.00;99.90
21662;DHT22;10992;48.170;8.596;2023-05-10T01:03:37;10.90;99.90
21662;DHT22;10992;48.170;8.596;2023-05-10T01:06:06;10.90;99.90
21662;DHT22;10992;48.170;8.596;2023-05-10T01:08:33;11.00;99.90
21662;DHT22;10992;48.170;8.596;2023-05-10T01:11:03;10.90;99.90
21662;DHT22;10992;48.170;8.596;2023-05-10T01:13:34;10.90;99.90
21662;DHT22;10992;48.170;8.596;2023-05-10T01:16:03;10.90;99.90
21662;DHT22;10992;48.170;8.596;2023-05-10T01:18:34;10.90;99.90
21662;DHT22;10992;48.170;8.596;2023-05-10T01:24:09;10.90;99.90
21662;DHT22;10992;48.170;8.596;2023-05-10T01:35:26;10.60;99.90
21662;DHT22;10992;48.170;8.596;2023-05-10T01:38:10;10.50;99.90
21662;DHT22;10992;48.170;8.596;2023-05-10T01:43:40;10.50;99.90
21662;DHT22;10992;48.170;8.596;2023-05-10T01:46:16;10.40;99.90
21662;DHT22;10992;48.170;8.596;2023-05-10T01:48:55;10.40;99.90
21662;DHT22;10992;48.170;8.596;2023-05-10T01:51:25;10.40;99.90
21662;DHT22;10992;48.170;8.596;2023-05-10T01:53:59;10.40;99.90
21662;DHT22;10992;48.170;8.596;2023-05-10T01:56:30;10.40;99.90
21662;DHT22;10992;48.170;8.596;2023-05-10T01:59:00;10.40;99.90
21662;DHT22;10992;48.170;8.596;2023-05-10T02:01:30;10.40;99.90
21662;DHT22;10992;48.170;8.596;2023-05-10T02:03:58;10.40;99.90
21662;DHT22;10992;48.170;8.596;2023-05-10T02:06:27;10.40;99.90
21662;DHT22;10992;48.170;8.596;2023-05-10T02:08:54;10.40;99.90
21662;DHT22;10992;48.170;8.596;2023-05-10T02:11:23;10.40;99.90
21662;DHT22;10992;48.170;8.596;2023-05-10T02:13:53;10.50;99.90
21662;DHT22;10992;48.170;8.596;2023-05-10T02:16:27;10.60;99.90
21662;DHT22;10992;48.170;8.596;2023-05-10T02:18:59;10.60;99.90
21662;DHT22;10992;48.170;8.596;2023-05-10T02:21:29;10.60;99.90
21662;DHT22;10992;48.170;8.596;2023-05-10T02:23:58;10.60;99.90
21662;DHT22;10992;48.170;8.596;2023-05-10T02:26:28;10.60;99.90
21662;DHT22;10992;48.170;8.596;2023-05-10T02:28:57;10.60;99.90
21662;DHT22;10992;48.170;8.596;2023-05-10T02:31:25;10.60;99.90
21662;DHT22;10992;48.170;8.596;2023-05-10T02:33:53;10.50;99.90
21662;DHT22;10992;48.170;8.596;2023-05-10T02:36:21;10.50;99.90
21662;DHT22;10992;48.170;8.596;2023-05-10T02:38:50;10.40;99.90
21662;DHT22;10992;48.170;8.596;2023-05-10T02:41:18;10.40;99.90
21662;DHT22;10992;48.170;8.596;2023-05-10T02:43:51;10.50;99.90
21662;DHT22;10992;48.170;8.596;2023-05-10T02:46:23;10.50;99.90
21662;DHT22;10992;48.170;8.596;2023-05-10T02:48:50;10.50;99.90
21662;DHT22;10992;48.170;8.596;2023-05-10T02:51:18;10.50;99.90
21662;DHT22;10992;48.170;8.596;2023-05-10T02:53:46;10.50;99.90
21662;DHT22;10992;48.170;8.596;2023-05-10T02:56:28;10.40;99.90
21662;DHT22;10992;48.170;8.596;2023-05-10T02:58:57;10.50;99.90
21662;DHT22;10992;48.170;8.596;2023-05-10T03:01:24;10.40;99.90
21662;DHT22;10992;48.170;8.596;2023-05-10T03:03:51;10.40;99.90
21662;DHT22;10992;48.170;8.596;2023-05-10T03:06:19;10.40;99.90
21662;DHT22;10992;48.170;8.596;2023-05-10T03:08:46;10.30;99.90
21662;DHT22;10992;48.170;8.596;2023-05-10T03:11:25;10.30;99.90
21662;DHT22;10992;48.170;8.596;2023-05-10T03:14:21;10.30;99.90
21662;DHT22;10992;48.170;8.596;2023-05-10T03:17:15;10.30;99.90
21662;DHT22;10992;48.170;8.596;2023-05-10T03:19:51;10.30;99.90
21662;DHT22;10992;48.170;8.596;2023-05-10T03:22:44;10.30;99.90
21662;DHT22;10992;48.170;8.596;2023-05-10T03:25:12;10.30;99.90
21662;DHT22;10992;48.170;8.596;2023-05-10T03:27:43;10.30;99.90
21662;DHT22;10992;48.170;8.596;2023-05-10T03:30:12;10.30;99.90
21662;DHT22;10992;48.170;8.596;2023-05-10T03:32:40;10.20;99.90
21662;DHT22;10992;48.170;8.596;2023-05-10T03:35:12;10.20;99.90
21662;DHT22;10992;48.170;8.596;2023-05-10T03:37:40;10.30;99.90
21662;DHT22;10992;48.170;8.596;2023-05-10T03:40:08;10.30;99.90
21662;DHT22;10992;48.170;8.596;2023-05-10T03:42:39;10.30;99.90
21662;DHT22;10992;48.170;8.596;2023-05-10T03:45:06;10.30;99.90
21662;DHT22;10992;48.170;8.596;2023-05-10T03:47:34;10.30;99.90
21662;DHT22;10992;48.170;8.596;2023-05-10T03:50:01;10.30;99.90
21662;DHT22;10992;48.170;8.596;2023-05-10T03:52:29;10.30;99.90
21662;DHT22;10992;48.170;8.596;2023-05-10T03:54:56;10.30;99.90
21662;DHT22;10992;48.170;8.596;2023-05-10T03:57:23;10.30;99.90
21662;DHT22;10992;48.170;8.596;2023-05-10T03:59:51;10.20;99.90
21662;DHT22;10992;48.170;8.596;2023-05-10T04:02:17;10.20;99.90
21662;DHT22;10992;48.170;8.596;2023-05-10T04:04:44;10.20;99.90
21662;DHT22;10992;48.170;8.596;2023-05-10T04:07:11;10.20;99.90
21662;DHT22;10992;48.170;8.596;2023-05-10T04:09:39;10.20;99.90
21662;DHT22;10992;48.170;8.596;2023-05-10T04:12:06;10.20;99.90
21662;DHT22;10992;48.170;8.596;2023-05-10T04:14:36;10.20;99.90
21662;DHT22;10992;48.170;8.596;2023-05-10T04:17:04;10.20;99.90
21662;DHT22;10992;48.170;8.596;2023-05-10T04:19:31;10.20;99.90
21662;DHT22;10992;48.170;8.596;2023-05-10T04:21:58;10.20;99.90
21662;DHT22;10992;48.170;8.596;2023-05-10T04:24:25;10.20;99.90
21662;DHT22;10992;48.170;8.596;2023-05-10T04:26:54;10.20;99.90
21662;DHT22;10992;48.170;8.596;2023-05-10T04:29:23;10.10;99.90
21662;DHT22;10992;48.170;8.596;2023-05-10T04:31:50;10.20;99.90
21662;DHT22;10992;48.170;8.596;2023-05-10T04:34:17;10.20;99.90
21662;DHT22;10992;48.170;8.596;2023-05-10T04:36:44;10.20;99.90
21662;DHT22;10992;48.170;8.596;2023-05-10T04:39:11;10.20;99.90
21662;DHT22;10992;48.170;8.596;2023-05-10T04:41:38;10.30;99.90
21662;DHT22;10992;48.170;8.596;2023-05-10T04:44:05;10.30;99.90
21662;DHT22;10992;48.170;8.596;2023-05-10T04:46:32;10.30;99.90
21662;DHT22;10992;48.170;8.596;2023-05-10T04:49:00;10.30;99.90
21662;DHT22;10992;48.170;8.596;2023-05-10T04:51:26;10.30;99.90
21662;DHT22;10992;48.170;8.596;2023-05-10T04:53:54;10.30;99.90
21662;DHT22;10992;48.170;8.596;2023-05-10T04:56:31;10.40;99.90
21662;DHT22;10992;48.170;8.596;2023-05-10T04:58:58;10.40;99.90
21662;DHT22;10992;48.170;8.596;2023-05-10T05:01:25;10.40;99.90
21662;DHT22;10992;48.170;8.596;2023-05-10T05:03:52;10.50;99.90
21662;DHT22;10992;48.170;8.596;2023-05-10T05:06:20;10.60;99.90
21662;DHT22;10992;48.170;8.596;2023-05-10T05:08:47;10.60;99.90
21662;DHT22;10992;48.170;8.596;2023-05-10T05:11:17;10.70;99.90
21662;DHT22;10992;48.170;8.596;2023-05-10T05:13:44;10.70;99.90
21662;DHT22;10992;48.170;8.596;2023-05-10T05:16:11;10.70;99.90
21662;DHT22;10992;48.170;8.596;2023-05-10T05:18:38;10.70;99.90
21662;DHT22;10992;48.170;8.596;2023-05-10T05:21:18;10.70;99.90
21662;DHT22;10992;48.170;8.596;2023-05-10T05:23:46;10.80;99.90
21662;DHT22;10992;48.170;8.596;2023-05-10T05:26:13;10.80;99.90
21662;DHT22;10992;48.170;8.596;2023-05-10T05:28:42;10.80;99.90
21662;DHT22;10992;48.170;8.596;2023-05-10T05:31:09;10.80;99.90
21662;DHT22;10992;48.170;8.596;2023-05-10T05:33:36;10.70;99.90
21662;DHT22;10992;48.170;8.596;2023-05-10T05:36:04;10.80;99.90
21662;DHT22;10992;48.170;8.596;2023-05-10T05:38:32;10.90;99.90
21662;DHT22;10992;48.170;8.596;2023-05-10T05:40:59;11.00;99.90
21662;DHT22;10992;48.170;8.596;2023-05-10T05:43:26;11.10;99.90
21662;DHT22;10992;48.170;8.596;2023-05-10T05:45:53;11.10;99.90
21662;DHT22;10992;48.170;8.596;2023-05-10T05:48:21;11.10;99.90
21662;DHT22;10992;48.170;8.596;2023-05-10T05:50:48;11.20;99.90
21662;DHT22;10992;48.170;8.596;2023-05-10T05:53:15;11.20;99.90
21662;DHT22;10992;48.170;8.596;2023-05-10T05:55:56;11.20;99.90
21662;DHT22;10992;48.170;8.596;2023-05-10T05:58:24;11.20;99.90
21662;DHT22;10992;48.170;8.596;2023-05-10T06:00:51;11.30;99.90
21662;DHT22;10992;48.170;8.596;2023-05-10T06:03:19;11.50;99.90
21662;DHT22;10992;48.170;8.596;2023-05-10T06:05:47;11.60;99.90
21662;DHT22;10992;48.170;8.596;2023-05-10T06:08:14;11.80;99.90
21662;DHT22;10992;48.170;8.596;2023-05-10T06:10:40;11.90;99.90
21662;DHT22;10992;48.170;8.596;2023-05-10T06:13:08;12.10;99.90
21662;DHT22;10992;48.170;8.596;2023-05-10T06:15:35;12.20;99.90
21662;DHT22;10992;48.170;8.596;2023-05-10T06:18:02;12.20;99.90
21662;DHT22;10992;48.170;8.596;2023-05-10T06:20:29;12.10;99.90
21662;DHT22;10992;48.170;8.596;2023-05-10T06:22:58;12.10;99.90
21662;DHT22;10992;48.170;8.596;2023-05-10T06:25:25;12.00;99.90
21662;DHT22;10992;48.170;8.596;2023-05-10T06:27:52;12.00;99.90
21662;DHT22;10992;48.170;8.596;2023-05-10T06:30:24;11.90;99.90
21662;DHT22;10992;48.170;8.596;2023-05-10T06:32:55;12.00;99.90
21662;DHT22;10992;48.170;8.596;2023-05-10T06:35:22;12.00;99.90
21662;DHT22;10992;48.170;8.596;2023-05-10T06:37:50;12.00;99.90
21662;DHT22;10992;48.170;8.596;2023-05-10T06:40:17;11.90;99.90
21662;DHT22;10992;48.170;8.596;2023-05-10T06:42:45;11.80;99.90
21662;DHT22;10992;48.170;8.596;2023-05-10T06:45:13;11.70;99.90
21662;DHT22;10992;48.170;8.596;2023-05-10T06:47:42;11.60;99.90
21662;DHT22;10992;48.170;8.596;2023-05-10T06:50:09;11.50;99.90
21662;DHT22;10992;48.170;8.596;2023-05-10T06:52:36;11.50;99.90
21662;DHT22;10992;48.170;8.596;2023-05-10T06:55:04;11.50;99.90
21662;DHT22;10992;48.170;8.596;2023-05-10T06:57:32;11.70;99.90
21662;DHT22;10992;48.170;8.596;2023-05-10T06:59:59;11.90;99.90
21662;DHT22;10992;48.170;8.596;2023-05-10T07:02:26;11.90;99.90
21662;DHT22;10992;48.170;8.596;2023-05-10T07:04:53;11.90;99.90
21662;DHT22;10992;48.170;8.596;2023-05-10T07:07:21;11.90;99.90
21662;DHT22;10992;48.170;8.596;2023-05-10T07:09:48;11.80;99.90
21662;DHT22;10992;48.170;8.596;2023-05-10T07:12:16;11.80;99.90
21662;DHT22;10992;48.170;8.596;2023-05-10T07:14:44;11.70;99.90
21662;DHT22;10992;48.170;8.596;2023-05-10T07:17:11;11.60;99.90
21662;DHT22;10992;48.170;8.596;2023-05-10T07:19:38;11.50;99.90
21662;DHT22;10992;48.170;8.596;2023-05-10T07:22:05;11.50;99.90
21662;DHT22;10992;48.170;8.596;2023-05-10T07:24:32;11.50;99.90
21662;DHT22;10992;48.170;8.596;2023-05-10T07:26:59;11.50;99.90
21662;DHT22;10992;48.170;8.596;2023-05-10T07:29:27;11.50;99.90
21662;DHT22;10992;48.170;8.596;2023-05-10T07:31:55;11.50;99.90
21662;DHT22;10992;48.170;8.596;2023-05-10T07:34:24;11.50;99.90
21662;DHT22;10992;48.170;8.596;2023-05-10T07:36:52;11.50;99.90
21662;DHT22;10992;48.170;8.596;2023-05-10T07:39:19;11.50;99.90
21662;DHT22;10992;48.170;8.596;2023-05-10T07:41:54;11.60;99.90
21662;DHT22;10992;48.170;8.596;2023-05-10T07:44:22;11.70;99.90
21662;DHT22;10992;48.170;8.596;2023-05-10T07:46:48;11.80;99.90
21662;DHT22;10992;48.170;8.596;2023-05-10T07:49:16;11.90;99.90
21662;DHT22;10992;48.170;8.596;2023-05-10T07:51:42;12.00;99.90
21662;DHT22;10992;48.170;8.596;2023-05-10T07:54:10;11.90;99.90
21662;DHT22;10992;48.170;8.596;2023-05-10T07:56:37;12.00;99.90
21662;DHT22;10992;48.170;8.596;2023-05-10T07:59:04;12.00;99.90
21662;DHT22;10992;48.170;8.596;2023-05-10T08:01:34;12.10;99.90
21662;DHT22;10992;48.170;8.596;2023-05-10T08:04:02;12.30;99.90
21662;DHT22;10992;48.170;8.596;2023-05-10T08:06:29;12.40;99.90
21662;DHT22;10992;48.170;8.596;2023-05-10T08:08:57;12.30;99.90
21662;DHT22;10992;48.170;8.596;2023-05-10T08:11:24;12.30;99.90
21662;DHT22;10992;48.170;8.596;2023-05-10T08:13:51;12.50;99.90
21662;DHT22;10992;48.170;8.596;2023-05-10T08:16:19;12.50;99.90
21662;DHT22;10992;48.170;8.596;2023-05-10T08:18:46;12.50;99.90
21662;DHT22;10992;48.170;8.596;2023-05-10T08:21:14;12.60;99.90
21662;DHT22;10992;48.170;8.596;2023-05-10T08:23:42;12.80;99.90
21662;DHT22;10992;48.170;8.596;2023-05-10T08:26:11;12.50;99.90
21662;DHT22;10992;48.170;8.596;2023-05-10T08:28:38;12.30;99.90
21662;DHT22;10992;48.170;8.596;2023-05-10T08:31:13;12.40;99.90
21662;DHT22;10992;48.170;8.596;2023-05-10T08:33:42;12.30;99.90
21662;DHT22;10992;48.170;8.596;2023-05-10T08:36:10;12.40;99.90
21662;DHT22;10992;48.170;8.596;2023-05-10T08:38:37;12.50;99.90
21662;DHT22;10992;48.170;8.596;2023-05-10T08:41:05;12.70;99.90
21662;DHT22;10992;48.170;8.596;2023-05-10T08:43:33;12.60;99.90
21662;DHT22;10992;48.170;8.596;2023-05-10T08:46:01;12.70;99.90
21662;DHT22;10992;48.170;8.596;2023-05-10T08:48:29;13.00;99.90
21662;DHT22;10992;48.170;8.596;2023-05-10T08:50:58;13.30;99.90
21662;DHT22;10992;48.170;8.596;2023-05-10T08:53:29;13.50;99.90
21662;DHT22;10992;48.170;8.596;2023-05-10T08:55:57;13.70;99.90
21662;DHT22;10992;48.170;8.596;2023-05-10T08:58:25;13.60;99.90
21662;DHT22;10992;48.170;8.596;2023-05-10T09:00:55;13.70;99.90
21662;DHT22;10992;48.170;8.596;2023-05-10T09:03:23;13.50;99.90
21662;DHT22;10992;48.170;8.596;2023-05-10T09:05:50;13.40;99.90
21662;DHT22;10992;48.170;8.596;2023-05-10T09:08:17;13.60;99.90
21662;DHT22;10992;48.170;8.596;2023-05-10T09:10:44;14.10;99.90
21662;DHT22;10992;48.170;8.596;2023-05-10T09:13:15;14.40;99.90
21662;DHT22;10992;48.170;8.596;2023-05-10T09:15:44;15.00;99.90
21662;DHT22;10992;48.170;8.596;2023-05-10T09:18:12;15.30;99.90
21662;DHT22;10992;48.170;8.596;2023-05-10T09:20:39;15.40;99.90
21662;DHT22;10992;48.170;8.596;2023-05-10T09:23:06;15.90;99.90
21662;DHT22;10992;48.170;8.596;2023-05-10T09:25:33;16.40;99.90
21662;DHT22;10992;48.170;8.596;2023-05-10T09:28:00;16.80;99.90
21662;DHT22;10992;48.170;8.596;2023-05-10T09:30:28;16.60;99.90
21662;DHT22;10992;48.170;8.596;2023-05-10T09:32:57;16.40;99.90
21662;DHT22;10992;48.170;8.596;2023-05-10T09:35:28;16.70;99.90
21662;DHT22;10992;48.170;8.596;2023-05-10T09:37:57;17.30;99.90
21662;DHT22;10992;48.170;8.596;2023-05-10T09:40:26;17.30;99.90
21662;DHT22;10992;48.170;8.596;2023-05-10T09:43:11;18.20;99.90
21662;DHT22;10992;48.170;8.596;2023-05-10T09:45:38;18.20;99.90
21662;DHT22;10992;48.170;8.596;2023-05-10T09:48:07;18.30;99.90
21662;DHT22;10992;48.170;8.596;2023-05-10T09:50:34;18.50;99.90
21662;DHT22;10992;48.170;8.596;2023-05-10T09:53:03;18.20;99.90
21662;DHT22;10992;48.170;8.596;2023-05-10T09:55:41;18.40;99.90
21662;DHT22;10992;48.170;8.596;2023-05-10T09:58:11;18.80;99.90
21662;DHT22;10992;48.170;8.596;2023-05-10T10:00:45;19.00;99.90
21662;DHT22;10992;48.170;8.596;2023-05-10T10:03:19;18.40;99.90
21662;DHT22;10992;48.170;8.596;2023-05-10T10:05:47;18.60;99.90
21662;DHT22;10992;48.170;8.596;2023-05-10T10:08:17;17.70;99.90
21662;DHT22;10992;48.170;8.596;2023-05-10T10:10:44;17.70;99.90
21662;DHT22;10992;48.170;8.596;2023-05-10T10:13:13;17.50;99.90
21662;DHT22;10992;48.170;8.596;2023-05-10T10:15:40;17.30;99.90
21662;DHT22;10992;48.170;8.596;2023-05-10T10:18:13;16.90;99.90
21662;DHT22;10992;48.170;8.596;2023-05-10T10:20:41;16.70;99.90
21662;DHT22;10992;48.170;8.596;2023-05-10T10:23:08;16.90;99.90
21662;DHT22;10992;48.170;8.596;2023-05-10T10:25:36;16.90;99.90
21662;DHT22;10992;48.170;8.596;2023-05-10T10:28:21;16.80;99.90
21662;DHT22;10992;48.170;8.596;2023-05-10T10:30:55;16.80;99.90
21662;DHT22;10992;48.170;8.596;2023-05-10T10:36:15;16.10;99.90
21662;DHT22;10992;48.170;8.596;2023-05-10T10:41:39;14.30;99.90
21662;DHT22;10992;48.170;8.596;2023-05-10T10:47:07;12.10;99.90
21662;DHT22;10992;48.170;8.596;2023-05-10T10:49:43;11.70;99.90
21662;DHT22;10992;48.170;8.596;2023-05-10T10:57:49;11.30;99.90
21662;DHT22;10992;48.170;8.596;2023-05-10T11:03:08;11.50;99.90
21662;DHT22;10992;48.170;8.596;2023-05-10T11:08:12;12.00;99.90
21662;DHT22;10992;48.170;8.596;2023-05-10T11:10:53;12.10;99.90
21662;DHT22;10992;48.170;8.596;2023-05-10T11:13:42;12.20;99.90
21662;DHT22;10992;48.170;8.596;2023-05-10T11:18:38;12.50;99.90
21662;DHT22;10992;48.170;8.596;2023-05-10T11:21:08;12.50;99.90
21662;DHT22;10992;48.170;8.596;2023-05-10T11:23:48;12.50;99.90
21662;DHT22;10992;48.170;8.596;2023-05-10T11:26:15;12.60;99.90
21662;DHT22;10992;48.170;8.596;2023-05-10T11:28:47;12.70;99.90
21662;DHT22;10992;48.170;8.596;2023-05-10T11:31:15;12.80;99.90
21662;DHT22;10992;48.170;8.596;2023-05-10T11:33:53;12.90;99.90
21662;DHT22;10992;48.170;8.596;2023-05-10T11:36:25;13.00;99.90
21662;DHT22;10992;48.170;8.596;2023-05-10T11:38:53;13.20;99.90
21662;DHT22;10992;48.170;8.596;2023-05-10T11:41:21;13.10;99.90
21662;DHT22;10992;48.170;8.596;2023-05-10T11:43:50;13.60;99.90
21662;DHT22;10992;48.170;8.596;2023-05-10T11:46:20;14.20;99.90
21662;DHT22;10992;48.170;8.596;2023-05-10T11:48:50;15.00;99.90
21662;DHT22;10992;48.170;8.596;2023-05-10T11:51:22;15.80;99.90
21662;DHT22;10992;48.170;8.596;2023-05-10T11:53:50;16.00;99.90
21662;DHT22;10992;48.170;8.596;2023-05-10T11:56:18;16.20;99.90
21662;DHT22;10992;48.170;8.596;2023-05-10T11:58:44;16.80;99.90
21662;DHT22;10992;48.170;8.596;2023-05-10T12:01:13;17.30;99.90
21662;DHT22;10992;48.170;8.596;2023-05-10T12:03:41;17.40;99.90
21662;DHT22;10992;48.170;8.596;2023-05-10T12:06:08;17.60;99.90
21662;DHT22;10992;48.170;8.596;2023-05-10T12:08:35;17.70;99.90
21662;DHT22;10992;48.170;8.596;2023-05-10T12:11:09;17.00;99.90
21662;DHT22;10992;48.170;8.596;2023-05-10T12:13:41;17.00;99.90
21662;DHT22;10992;48.170;8.596;2023-05-10T12:16:20;17.60;99.90
21662;DHT22;10992;48.170;8.596;2023-05-10T12:18:56;18.10;99.90
21662;DHT22;10992;48.170;8.596;2023-05-10T12:21:24;17.50;99.90
21662;DHT22;10992;48.170;8.596;2023-05-10T12:23:53;17.70;99.90
21662;DHT22;10992;48.170;8.596;2023-05-10T12:26:24;18.30;99.90
21662;DHT22;10992;48.170;8.596;2023-05-10T12:29:12;17.70;99.90
21662;DHT22;10992;48.170;8.596;2023-05-10T12:31:57;17.90;99.90
21662;DHT22;10992;48.170;8.596;2023-05-10T12:34:30;18.00;99.90
21662;DHT22;10992;48.170;8.596;2023-05-10T12:36:58;17.90;99.90
21662;DHT22;10992;48.170;8.596;2023-05-10T12:39:25;17.40;99.90
21662;DHT22;10992;48.170;8.596;2023-05-10T12:41:52;16.90;99.90
21662;DHT22;10992;48.170;8.596;2023-05-10T12:44:19;16.50;99.90
21662;DHT22;10992;48.170;8.596;2023-05-10T12:46:46;16.30;99.90
21662;DHT22;10992;48.170;8.596;2023-05-10T12:49:12;16.30;99.90
21662;DHT22;10992;48.170;8.596;2023-05-10T12:51:39;16.50;99.90
21662;DHT22;10992;48.170;8.596;2023-05-10T12:54:06;16.60;99.90
21662;DHT22;10992;48.170;8.596;2023-05-10T12:56:33;16.70;99.90
21662;DHT22;10992;48.170;8.596;2023-05-10T12:59:00;16.80;99.90
21662;DHT22;10992;48.170;8.596;2023-05-10T13:01:28;17.20;99.90
21662;DHT22;10992;48.170;8.596;2023-05-10T13:03:55;16.70;99.90
21662;DHT22;10992;48.170;8.596;2023-05-10T13:06:22;16.70;99.90
21662;DHT22;10992;48.170;8.596;2023-05-10T13:08:49;17.40;99.90
21662;DHT22;10992;48.170;8.596;2023-05-10T13:11:16;17.80;99.90
21662;DHT22;10992;48.170;8.596;2023-05-10T13:13:43;17.50;99.90
21662;DHT22;10992;48.170;8.596;2023-05-10T13:16:11;17.90;99.90
21662;DHT22;10992;48.170;8.596;2023-05-10T13:18:38;17.30;99.90
21662;DHT22;10992;48.170;8.596;2023-05-10T13:21:04;16.40;99.90
21662;DHT22;10992;48.170;8.596;2023-05-10T13:23:32;15.60;99.90
21662;DHT22;10992;48.170;8.596;2023-05-10T13:25:59;14.90;99.90
21662;DHT22;10992;48.170;8.596;2023-05-10T13:28:26;14.30;99.90
21662;DHT22;10992;48.170;8.596;2023-05-10T13:30:53;14.00;99.90
21662;DHT22;10992;48.170;8.596;2023-05-10T13:33:20;13.90;99.90
21662;DHT22;10992;48.170;8.596;2023-05-10T13:35:46;13.70;99.90
21662;DHT22;10992;48.170;8.596;2023-05-10T13:38:14;13.50;99.90
21662;DHT22;10992;48.170;8.596;2023-05-10T13:40:40;13.60;99.90
21662;DHT22;10992;48.170;8.596;2023-05-10T13:43:07;13.80;99.90
21662;DHT22;10992;48.170;8.596;2023-05-10T13:45:34;14.10;99.90
21662;DHT22;10992;48.170;8.596;2023-05-10T13:48:01;14.60;99.90
21662;DHT22;10992;48.170;8.596;2023-05-10T13:50:29;14.90;99.90
21662;DHT22;10992;48.170;8.596;2023-05-10T13:52:56;15.30;99.90
21662;DHT22;10992;48.170;8.596;2023-05-10T13:55:23;15.30;99.90
21662;DHT22;10992;48.170;8.596;2023-05-10T13:57:50;15.60;99.90
21662;DHT22;10992;48.170;8.596;2023-05-10T14:00:17;15.50;99.90
21662;DHT22;10992;48.170;8.596;2023-05-10T14:02:44;15.40;99.90
21662;DHT22;10992;48.170;8.596;2023-05-10T14:05:11;15.40;99.90
21662;DHT22;10992;48.170;8.596;2023-05-10T14:07:39;15.00;99.90
21662;DHT22;10992;48.170;8.596;2023-05-10T14:10:06;14.80;99.90
21662;DHT22;10992;48.170;8.596;2023-05-10T14:12:33;14.50;99.90
21662;DHT22;10992;48.170;8.596;2023-05-10T14:15:00;14.60;99.90
21662;DHT22;10992;48.170;8.596;2023-05-10T14:17:28;14.30;99.90
21662;DHT22;10992;48.170;8.596;2023-05-10T14:19:55;13.60;99.90
21662;DHT22;10992;48.170;8.596;2023-05-10T14:22:21;13.30;99.90
21662;DHT22;10992;48.170;8.596;2023-05-10T14:24:49;13.30;99.90
21662;DHT22;10992;48.170;8.596;2023-05-10T14:27:17;13.10;99.90
21662;DHT22;10992;48.170;8.596;2023-05-10T14:29:45;12.80;99.90
21662;DHT22;10992;48.170;8.596;2023-05-10T14:32:12;12.90;99.90
21662;DHT22;10992;48.170;8.596;2023-05-10T14:34:39;13.10;99.90
21662;DHT22;10992;48.170;8.596;2023-05-10T14:37:06;13.20;99.90
21662;DHT22;10992;48.170;8.596;2023-05-10T14:39:33;13.50;99.90
21662;DHT22;10992;48.170;8.596;2023-05-10T14:42:00;13.70;99.90
21662;DHT22;10992;48.170;8.596;2023-05-10T14:44:26;14.10;99.90
21662;DHT22;10992;48.170;8.596;2023-05-10T14:46:54;14.40;99.90
21662;DHT22;10992;48.170;8.596;2023-05-10T14:49:22;14.60;99.90
21662;DHT22;10992;48.170;8.596;2023-05-10T14:51:53;14.60;99.90
21662;DHT22;10992;48.170;8.596;2023-05-10T14:54:20;14.80;99.90
21662;DHT22;10992;48.170;8.596;2023-05-10T14:56:47;14.80;99.90
21662;DHT22;10992;48.170;8.596;2023-05-10T14:59:16;15.00;99.90
21662;DHT22;10992;48.170;8.596;2023-05-10T15:01:43;14.70;99.90
21662;DHT22;10992;48.170;8.596;2023-05-10T15:04:11;15.20;99.90
21662;DHT22;10992;48.170;8.596;2023-05-10T15:06:40;15.30;99.90
21662;DHT22;10992;48.170;8.596;2023-05-10T15:09:07;15.20;99.90
21662;DHT22;10992;48.170;8.596;2023-05-10T15:11:34;15.40;99.90
21662;DHT22;10992;48.170;8.596;2023-05-10T15:14:01;15.50;99.90
21662;DHT22;10992;48.170;8.596;2023-05-10T15:16:28;15.50;99.90
21662;DHT22;10992;48.170;8.596;2023-05-10T15:18:55;15.50;99.90
21662;DHT22;10992;48.170;8.596;2023-05-10T15:21:22;15.60;99.90
21662;DHT22;10992;48.170;8.596;2023-05-10T15:23:49;15.50;99.90
21662;DHT22;10992;48.170;8.596;2023-05-10T15:26:16;15.20;99.90
21662;DHT22;10992;48.170;8.596;2023-05-10T15:28:42;15.40;99.90
21662;DHT22;10992;48.170;8.596;2023-05-10T15:31:10;15.30;99.90
21662;DHT22;10992;48.170;8.596;2023-05-10T15:33:37;15.40;99.90
21662;DHT22;10992;48.170;8.596;2023-05-10T15:36:04;15.40;99.90
21662;DHT22;10992;48.170;8.596;2023-05-10T15:38:31;14.90;99.90
21662;DHT22;10992;48.170;8.596;2023-05-10T15:40:58;14.80;99.90
21662;DHT22;10992;48.170;8.596;2023-05-10T15:43:25;14.80;99.90
21662;DHT22;10992;48.170;8.596;2023-05-10T15:45:52;15.20;99.90
21662;DHT22;10992;48.170;8.596;2023-05-10T15:48:19;15.40;99.90
21662;DHT22;10992;48.170;8.596;2023-05-10T15:50:45;15.60;99.90
21662;DHT22;10992;48.170;8.596;2023-05-10T15:53:12;15.70;99.90
21662;DHT22;10992;48.170;8.596;2023-05-10T15:55:39;15.60;99.90
21662;DHT22;10992;48.170;8.596;2023-05-10T15:58:06;15.40;99.90
21662;DHT22;10992;48.170;8.596;2023-05-10T16:00:33;15.30;99.90
21662;DHT22;10992;48.170;8.596;2023-05-10T16:03:00;15.20;99.90
21662;DHT22;10992;48.170;8.596;2023-05-10T16:05:27;15.20;99.90
21662;DHT22;10992;48.170;8.596;2023-05-10T16:07:59;15.20;99.90
21662;DHT22;10992;48.170;8.596;2023-05-10T16:10:26;15.20;99.90
21662;DHT22;10992;48.170;8.596;2023-05-10T16:12:53;15.00;99.90
21662;DHT22;10992;48.170;8.596;2023-05-10T16:15:20;15.10;99.90
21662;DHT22;10992;48.170;8.596;2023-05-10T16:17:48;15.10;99.90